Time;durP1;ratioP1;P1;durP2;ratioP2;P2;SDS_P1;SDS_P2;PMS_P1;PMS_P2;Temp;Humidity;BMP_temperature;BMP_pressure;BME280_temperature;BME280_humidity;BME280_pressure;Samples;Min_cycle;Max_cycle;Signal;HPM_P1;HPM_P2
2021/03/18 00:01:07;;;;;;;;;;;;;;;10.35;43.50;102105.91;4820493;29;20363;-78
2021/03/18 00:03:35;;;;;;;;;;;;;;;10.29;43.36;102101.53;4829609;29;20617;-77
2021/03/18 00:06:03;;;;;;;;;;;;;;;10.26;43.52;102097.16;4835381;29;20316;-78
2021/03/18 00:08:31;;;;;;;;;;;;;;;10.23;43.23;102099.81;4826023;29;20374;-77
2021/03/18 00:11:01;;;;;;;;;;;;;;;10.22;43.44;102097.19;4827295;29;19937;-77
2021/03/18 00:13:29;;;;;;;;;;;;;;;10.21;43.46;102101.56;4842103;29;19940;-78
2021/03/18 00:15:57;;;;;;;;;;;;;;;10.21;43.43;102098.06;4842760;29;20387;-78
2021/03/18 00:18:26;;;;;;;;;;;;;;;10.15;43.80;102093.66;4820742;29;19961;-77
2021/03/18 00:20:53;;;;;;;;;;;;;;;10.16;43.38;102099.84;4822935;29;20129;-77
2021/03/18 00:23:20;;;;;;;;;;;;;;;10.11;43.49;102094.56;4826794;29;19943;-77
2021/03/18 00:25:47;;;;;;;;;;;;;;;10.13;43.61;102095.44;4825760;29;20476;-78
2021/03/18 00:28:16;;;;;;;;;;;;;;;10.12;43.69;102097.22;4845873;29;19944;-78
2021/03/18 00:30:43;;;;;;;;;;;;;;;10.09;43.37;102088.41;4842831;29;19943;-77
2021/03/18 00:33:11;;;;;;;;;;;;;;;10.10;43.16;102098.09;4822589;29;20050;-77
2021/03/18 00:35:38;;;;;;;;;;;;;;;10.08;43.69;102089.28;4825318;29;20203;-78
2021/03/18 00:38:05;;;;;;;;;;;;;;;10.06;43.31;102096.34;4843951;29;19935;-77
2021/03/18 00:40:34;;;;;;;;;;;;;;;10.05;43.45;102089.31;4844106;29;20890;-79
2021/03/18 00:43:03;;;;;;;;;;;;;;;10.03;43.38;102091.94;4841419;29;20007;-78
2021/03/18 00:45:35;;;;;;;;;;;;;;;10.01;43.76;102090.19;4828312;29;19939;-79
2021/03/18 00:48:04;;;;;;;;;;;;;;;10.00;43.82;102081.38;4816758;29;20551;-77
2021/03/18 00:50:34;;;;;;;;;;;;;;;9.98;43.57;102080.53;4831506;29;19936;-78
2021/03/18 00:53:02;;;;;;;;;;;;;;;9.97;43.52;102074.34;4823610;29;19936;-77
2021/03/18 00:55:29;;;;;;;;;;;;;;;9.94;43.50;102084.03;4822913;29;20311;-77
2021/03/18 00:57:57;;;;;;;;;;;;;;;9.93;44.00;102075.25;4824781;29;19936;-78
2021/03/18 01:00:27;;;;;;;;;;;;;;;9.91;43.51;102073.50;4818382;29;19933;-77
2021/03/18 01:02:57;;;;;;;;;;;;;;;9.83;43.79;102067.34;4815810;29;19932;-78
2021/03/18 01:05:27;;;;;;;;;;;;;;;9.88;43.40;102070.88;4824040;29;19936;-78
2021/03/18 01:07:56;;;;;;;;;;;;;;;9.84;43.57;102079.69;4823207;29;19936;-76
2021/03/18 01:10:25;;;;;;;;;;;;;;;9.81;43.48;102077.94;4823395;29;20067;-76
2021/03/18 01:12:52;;;;;;;;;;;;;;;9.77;43.59;102074.41;4821792;29;19936;-77
2021/03/18 01:15:19;;;;;;;;;;;;;;;9.74;43.84;102062.97;4819481;29;19948;-78
2021/03/18 01:17:46;;;;;;;;;;;;;;;9.69;43.34;102062.09;4814453;29;20457;-74
2021/03/18 01:20:15;;;;;;;;;;;;;;;9.63;43.42;102055.06;4821873;29;20402;-74
2021/03/18 01:22:42;;;;;;;;;;;;;;;9.62;43.79;102051.53;4822603;29;20440;-73
2021/03/18 01:25:10;;;;;;;;;;;;;;;9.58;43.76;102049.78;4822673;29;19936;-75
2021/03/18 01:27:37;;;;;;;;;;;;;;;9.53;43.73;102050.69;4824173;29;19944;-75
2021/03/18 01:30:06;;;;;;;;;;;;;;;9.47;43.89;102041.91;4816842;29;19963;-74
2021/03/18 01:32:36;;;;;;;;;;;;;;;9.46;44.11;102042.78;4814954;29;19944;-74
2021/03/18 01:35:05;;;;;;;;;;;;;;;9.40;43.89;102037.53;4825224;29;19936;-74
2021/03/18 01:37:33;;;;;;;;;;;;;;;9.34;43.88;102045.44;4824059;29;19962;-74
2021/03/18 01:40:01;;;;;;;;;;;;;;;9.30;43.65;102044.56;4823940;29;19936;-75
2021/03/18 01:42:28;;;;;;;;;;;;;;;9.29;43.99;102039.28;4818857;29;20520;-74
2021/03/18 01:44:54;;;;;;;;;;;;;;;9.23;43.96;102037.56;4820441;29;19929;-75
2021/03/18 01:47:22;;;;;;;;;;;;;;;9.20;44.32;102041.94;4825111;29;20017;-75
2021/03/18 01:49:49;;;;;;;;;;;;;;;9.16;44.41;102046.34;4828764;29;19997;-75
2021/03/18 01:52:16;;;;;;;;;;;;;;;9.12;44.34;102047.22;4828031;29;20223;-76
2021/03/18 01:54:44;;;;;;;;;;;;;;;9.10;44.65;102041.97;4826071;29;19932;-74
2021/03/18 01:57:11;;;;;;;;;;;;;;;9.06;44.53;102052.50;4822334;29;19960;-74
2021/03/18 01:59:38;;;;;;;;;;;;;;;9.02;44.47;102043.72;4827278;29;19976;-74
2021/03/18 02:02:05;;;;;;;;;;;;;;;8.99;44.30;102042.84;4842302;29;19935;-77
2021/03/18 02:04:33;;;;;;;;;;;;;;;8.96;44.50;102035.81;4826552;29;19936;-77
2021/03/18 02:07:00;;;;;;;;;;;;;;;8.90;44.58;102038.44;4825298;29;21707;-77
2021/03/18 02:09:28;;;;;;;;;;;;;;;8.86;44.34;102039.31;4843300;29;20298;-77
2021/03/18 02:11:56;;;;;;;;;;;;;;;8.85;44.63;102045.47;4821815;29;19968;-75
2021/03/18 02:14:24;;;;;;;;;;;;;;;8.82;43.79;102035.78;4819743;29;19942;-78
2021/03/18 02:16:54;;;;;;;;;;;;;;;8.77;44.72;102045.47;4827726;29;20615;-76
2021/03/18 02:19:34;;;;;;;;;;;;;;;8.74;44.02;102043.69;4827592;29;19961;-77
2021/03/18 02:22:21;;;;;;;;;;;;;;;8.71;44.66;102042.84;4829537;29;19996;-76
2021/03/18 02:24:56;;;;;;;;;;;;;;;8.68;44.22;102041.06;4844838;29;20544;-76
2021/03/18 02:27:38;;;;;;;;;;;;;;;8.66;44.04;102034.03;4823234;29;20458;-77
2021/03/18 02:30:26;;;;;;;;;;;;;;;8.61;44.36;102039.28;4830900;29;19942;-76
2021/03/18 02:33:13;;;;;;;;;;;;;;;8.58;44.58;102032.25;4846273;29;20016;-78
2021/03/18 02:35:45;;;;;;;;;;;;;;;8.56;44.23;102044.56;4828368;29;20776;-78
2021/03/18 02:38:14;;;;;;;;;;;;;;;8.53;44.68;102030.50;4844739;29;19943;-77
2021/03/18 02:40:43;;;;;;;;;;;;;;;8.49;44.58;102034.88;4825318;29;19964;-78
2021/03/18 02:43:11;;;;;;;;;;;;;;;8.47;44.15;102031.38;4827633;29;20654;-78
2021/03/18 02:45:41;;;;;;;;;;;;;;;8.43;44.07;102022.53;4828244;29;19980;-73
2021/03/18 02:48:10;;;;;;;;;;;;;;;8.41;44.36;102016.34;4848418;29;19927;-73
2021/03/18 02:50:37;;;;;;;;;;;;;;;8.36;44.43;102023.38;4825542;29;19936;-74
2021/03/18 02:53:07;;;;;;;;;;;;;;;8.31;44.42;102019.84;4825365;29;19936;-73
2021/03/18 02:55:35;;;;;;;;;;;;;;;8.31;44.79;102019.84;4825833;29;19932;-74
2021/03/18 02:58:04;;;;;;;;;;;;;;;8.29;44.27;102018.97;4829301;29;20825;-73
2021/03/18 03:00:31;;;;;;;;;;;;;;;8.24;44.72;102013.69;4827328;29;19936;-74
2021/03/18 03:03:00;;;;;;;;;;;;;;;8.21;44.38;102021.59;4845945;29;19995;-73
2021/03/18 03:05:30;;;;;;;;;;;;;;;8.17;44.42;102018.94;4827502;29;19936;-74
2021/03/18 03:07:58;;;;;;;;;;;;;;;8.13;44.77;102021.56;4840700;29;19936;-74
2021/03/18 03:10:27;;;;;;;;;;;;;;;8.15;44.35;102016.28;4843098;29;19932;-74
2021/03/18 03:12:56;;;;;;;;;;;;;;;8.12;44.35;102016.31;4844630;29;20006;-74
2021/03/18 03:15:24;;;;;;;;;;;;;;;8.07;44.18;102013.63;4827809;29;19940;-73
2021/03/18 03:17:51;;;;;;;;;;;;;;;8.05;44.43;102007.50;4844735;29;20420;-73
2021/03/18 03:20:19;;;;;;;;;;;;;;;8.00;44.31;102006.59;4826746;29;19944;-73
2021/03/18 03:22:47;;;;;;;;;;;;;;;7.94;44.38;102004.81;4837112;29;19972;-75
2021/03/18 03:25:15;;;;;;;;;;;;;;;7.94;44.76;102011.84;4844034;29;20511;-73
2021/03/18 03:27:45;;;;;;;;;;;;;;;7.90;44.51;102010.06;4847505;29;19935;-74
2021/03/18 03:30:12;;;;;;;;;;;;;;;7.86;44.69;102018.84;4846667;29;19971;-74
2021/03/18 03:32:40;;;;;;;;;;;;;;;7.84;44.74;102010.03;4825979;29;20031;-74
2021/03/18 03:35:09;;;;;;;;;;;;;;;7.82;44.51;102020.56;4823627;29;19936;-74
2021/03/18 03:37:36;;;;;;;;;;;;;;;7.77;44.84;102017.94;4841942;29;20702;-73
2021/03/18 03:40:06;;;;;;;;;;;;;;;7.73;44.42;102017.91;4827338;29;20388;-72
2021/03/18 03:42:33;;;;;;;;;;;;;;;7.74;44.87;102019.66;4825001;29;19957;-73
2021/03/18 03:45:02;;;;;;;;;;;;;;;7.69;44.59;102019.63;4843009;29;20359;-74
2021/03/18 03:47:29;;;;;;;;;;;;;;;7.65;44.42;102025.75;4843670;29;20308;-72
2021/03/18 03:49:56;;;;;;;;;;;;;;;7.62;44.48;102012.59;4844012;29;19936;-75
2021/03/18 03:52:26;;;;;;;;;;;;;;;7.57;44.65;102012.53;4827542;29;20000;-73
2021/03/18 03:54:57;;;;;;;;;;;;;;;7.60;44.55;102016.94;4843653;29;19928;-73
2021/03/18 03:57:28;;;;;;;;;;;;;;;7.55;44.54;102018.69;4842932;29;20399;-73
2021/03/18 03:59:56;;;;;;;;;;;;;;;7.50;44.43;102013.41;4847168;29;19936;-73
2021/03/18 04:02:26;;;;;;;;;;;;;;;7.50;44.88;102012.50;4824695;29;19928;-72
2021/03/18 04:04:55;;;;;;;;;;;;;;;7.47;44.68;102006.38;4836143;29;19971;-73
2021/03/18 04:07:26;;;;;;;;;;;;;;;7.44;44.85;101997.56;4829522;29;20047;-74
2021/03/18 04:09:54;;;;;;;;;;;;;;;7.43;44.89;102003.69;4841738;29;19959;-74
2021/03/18 04:12:23;;;;;;;;;;;;;;;7.39;44.58;102008.03;4827658;29;19934;-75
2021/03/18 04:14:55;;;;;;;;;;;;;;;7.37;44.44;102004.53;4823143;29;19943;-75
2021/03/18 04:17:25;;;;;;;;;;;;;;;7.36;44.35;101997.50;4814934;29;20039;-75
2021/03/18 04:19:55;;;;;;;;;;;;;;;7.32;44.63;101993.97;4825644;29;19935;-76
2021/03/18 04:22:23;;;;;;;;;;;;;;;7.29;44.77;101990.47;4841354;29;19936;-76
2021/03/18 04:24:51;;;;;;;;;;;;;;;7.27;44.61;101994.81;4844089;29;20933;-74
2021/03/18 04:27:19;;;;;;;;;;;;;;;7.22;44.68;101989.56;4840786;29;19939;-73
2021/03/18 04:29:46;;;;;;;;;;;;;;;7.19;44.82;101992.13;4825951;29;20520;-74
2021/03/18 04:32:14;;;;;;;;;;;;;;;7.18;44.67;101987.75;4839004;29;19936;-74
2021/03/18 04:34:52;;;;;;;;;;;;;;;7.14;44.59;101986.88;4836856;29;19943;-75
2021/03/18 04:37:19;;;;;;;;;;;;;;;7.12;44.79;101979.81;4827011;29;19952;-74
2021/03/18 04:39:47;;;;;;;;;;;;;;;7.08;44.85;101980.69;4844498;29;19936;-75
2021/03/18 04:42:14;;;;;;;;;;;;;;;7.05;44.84;101976.28;4828503;29;19932;-76
2021/03/18 04:44:42;;;;;;;;;;;;;;;7.03;44.63;101978.00;4843696;29;19942;-74
2021/03/18 04:47:10;;;;;;;;;;;;;;;7.00;44.64;101966.56;4821027;29;20562;-74
2021/03/18 04:49:38;;;;;;;;;;;;;;;7.00;44.72;101963.94;4843520;29;19936;-74
2021/03/18 04:52:07;;;;;;;;;;;;;;;6.97;44.77;101963.06;4844414;29;19942;-74
2021/03/18 04:54:35;;;;;;;;;;;;;;;6.93;44.65;101957.75;4843794;29;20453;-74
2021/03/18 04:57:02;;;;;;;;;;;;;;;6.89;44.79;101958.59;4840349;29;19932;-75
2021/03/18 04:59:29;;;;;;;;;;;;;;;6.87;44.73;101950.72;4842336;29;20669;-75
2021/03/18 05:01:58;;;;;;;;;;;;;;;6.86;44.67;101948.06;4824694;29;19974;-74
2021/03/18 05:04:25;;;;;;;;;;;;;;;6.84;44.72;101953.28;4825932;29;19936;-75
2021/03/18 05:06:53;;;;;;;;;;;;;;;6.85;44.73;101954.19;4826016;29;19935;-75
2021/03/18 05:09:23;;;;;;;;;;;;;;;6.80;44.89;101954.16;4826438;29;19944;-75
2021/03/18 05:11:51;;;;;;;;;;;;;;;6.78;44.73;101950.66;4824434;29;19932;-75
2021/03/18 05:14:18;;;;;;;;;;;;;;;6.78;44.58;101946.25;4822872;29;19936;-75
2021/03/18 05:16:46;;;;;;;;;;;;;;;6.77;44.61;101943.63;4821862;29;19968;-74
2021/03/18 05:19:14;;;;;;;;;;;;;;;6.75;44.74;101945.34;4839896;29;20307;-74
2021/03/18 05:21:44;;;;;;;;;;;;;;;6.73;44.66;101949.72;4841805;29;20472;-74
2021/03/18 05:24:12;;;;;;;;;;;;;;;6.71;44.50;101948.81;4825460;29;19959;-74
2021/03/18 05:26:41;;;;;;;;;;;;;;;6.71;44.47;101949.72;4830282;29;19939;-75
2021/03/18 05:29:08;;;;;;;;;;;;;;;6.68;44.64;101941.78;4835372;29;19957;-74
2021/03/18 05:31:35;;;;;;;;;;;;;;;6.65;44.57;101942.63;4841623;29;19936;-74
2021/03/18 05:34:03;;;;;;;;;;;;;;;6.67;44.48;101936.53;4842786;29;20584;-74
2021/03/18 05:36:31;;;;;;;;;;;;;;;6.64;44.35;101932.13;4843958;29;20808;-75
2021/03/18 05:38:58;;;;;;;;;;;;;;;6.63;44.27;101940.88;4822646;29;19936;-74
2021/03/18 05:41:25;;;;;;;;;;;;;;;6.61;44.42;101940.84;4823156;29;19958;-75
2021/03/18 05:43:54;;;;;;;;;;;;;;;6.62;44.40;101928.59;4823305;29;19936;-74
2021/03/18 05:46:21;;;;;;;;;;;;;;;6.63;44.29;101928.63;4822654;29;19940;-76
2021/03/18 05:48:48;;;;;;;;;;;;;;;6.63;44.24;101932.97;4841074;29;19928;-77
2021/03/18 05:51:16;;;;;;;;;;;;;;;6.63;44.07;101935.59;4829595;29;19937;-75
2021/03/18 05:53:44;;;;;;;;;;;;;;;6.60;44.00;101939.09;4826442;29;20709;-75
2021/03/18 05:56:13;;;;;;;;;;;;;;;6.61;44.24;101935.59;4842087;29;19936;-75
2021/03/18 05:58:41;;;;;;;;;;;;;;;6.63;43.87;101930.34;4839816;29;19971;-77
2021/03/18 06:01:11;;;;;;;;;;;;;;;6.61;44.17;101932.09;4843479;29;20004;-76
2021/03/18 06:03:39;;;;;;;;;;;;;;;6.60;43.95;101938.22;4823737;29;20003;-76
2021/03/18 06:06:07;;;;;;;;;;;;;;;6.60;43.99;101936.47;4823754;29;20043;-76
2021/03/18 06:08:35;;;;;;;;;;;;;;;6.59;43.89;101934.72;4847408;29;19932;-76
2021/03/18 06:11:02;;;;;;;;;;;;;;;6.57;44.36;101948.72;4835800;29;20271;-76
2021/03/18 06:13:29;;;;;;;;;;;;;;;6.59;43.73;101937.34;4827575;29;20377;-78
2021/03/18 06:15:57;;;;;;;;;;;;;;;6.57;43.79;101943.47;4845452;29;19936;-76
2021/03/18 06:18:26;;;;;;;;;;;;;;;6.57;43.95;101941.72;4829915;29;19943;-80
2021/03/18 06:21:00;;;;;;;;;;;;;;;6.59;43.67;101941.72;4829220;29;19930;-77
2021/03/18 06:23:38;;;;;;;;;;;;;;;6.59;43.82;101942.63;4839974;29;19936;-77
2021/03/18 06:26:05;;;;;;;;;;;;;;;6.61;43.87;101932.09;4824289;29;19936;-76
2021/03/18 06:28:33;;;;;;;;;;;;;;;6.60;43.71;101931.19;4842778;29;20419;-76
2021/03/18 06:31:01;;;;;;;;;;;;;;;6.62;43.65;101934.75;4827620;29;19936;-74
2021/03/18 06:33:30;;;;;;;;;;;;;;;6.63;43.68;101932.97;4831098;29;19936;-75
2021/03/18 06:36:18;;;;;;;;;;;;;;;6.79;43.50;101940.13;4822939;29;19947;-78
2021/03/18 06:38:57;;;;;;;;;;;;;;;7.23;42.19;101933.38;4822939;29;19928;-78
2021/03/18 06:41:29;;;;;;;;;;;;;;;7.52;41.59;101927.38;4824660;29;19996;-79
2021/03/18 06:43:57;;;;;;;;;;;;;;;7.77;41.34;101923.09;4842702;29;19931;-80
2021/03/18 06:46:24;;;;;;;;;;;;;;;7.96;40.89;101929.28;4846284;29;19936;-80
2021/03/18 06:48:52;;;;;;;;;;;;;;;8.18;40.22;101929.34;4825312;29;19928;-77
2021/03/18 06:51:55;;;;;;;;;;;;;;;;;;;;;
2021/03/18 06:54:40;;;;;;;;;;;;;;;8.58;39.69;101913.56;4829145;29;20795;-81
2021/03/18 07:00:47;;;;;;;;;;;;;;;8.95;39.59;101915.28;4765161;29;20676;-76
2021/03/18 07:03:25;;;;;;;;;;;;;;;9.12;39.26;101910.81;4766966;29;20693;-77
2021/03/18 07:05:53;;;;;;;;;;;;;;;9.25;39.11;101911.66;4793258;29;20143;-82
2021/03/18 07:08:21;;;;;;;;;;;;;;;9.37;39.03;101915.16;4792206;29;19925;-83
2021/03/18 07:14:39;;;;;;;;;;;;;;;9.75;39.04;101924.69;4780076;29;19931;-72
2021/03/18 07:17:20;;;;;;;;;;;;;;;9.89;38.93;101928.13;4774037;29;20472;-78
2021/03/18 07:19:47;;;;;;;;;;;;;;;10.03;38.71;101925.38;4791370;29;19967;-75
2021/03/18 07:22:19;;;;;;;;;;;;;;;10.16;38.25;101931.47;4792067;29;19937;-77
2021/03/18 07:24:51;;;;;;;;;;;;;;;10.38;37.83;101931.38;4777457;29;20078;-78
2021/03/18 07:27:18;;;;;;;;;;;;;;;10.68;37.60;101926.72;4777652;29;19963;-80
2021/03/18 07:29:46;;;;;;;;;;;;;;;11.02;36.85;101931.66;4798138;29;20197;-82
2021/03/18 07:32:28;;;;;;;;;;;;;;;11.45;35.70;101933.81;4818034;29;19975;-86
2021/03/18 07:35:50;;;;;;;;;;;;;;;11.62;35.77;101936.25;4838711;29;19943;-78
2021/03/18 07:38:19;;;;;;;;;;;;;;;11.56;36.33;101931.06;4844057;29;19942;-78
2021/03/18 07:40:46;;;;;;;;;;;;;;;11.86;35.71;101935.06;4829410;29;19939;-77
2021/03/18 07:43:17;;;;;;;;;;;;;;;12.19;35.27;101930.22;4825547;29;20388;-80
2021/03/18 07:45:45;;;;;;;;;;;;;;;12.48;34.76;101928.00;4828054;29;20692;-78
2021/03/18 07:48:13;;;;;;;;;;;;;;;12.74;34.34;101915.16;4837333;29;19978;-78
2021/03/18 07:50:41;;;;;;;;;;;;;;;13.11;33.87;101916.25;4824343;29;20019;-78
2021/03/18 07:53:09;;;;;;;;;;;;;;;13.13;33.92;101911.75;4842522;29;19936;-78
2021/03/18 07:55:38;;;;;;;;;;;;;;;12.96;34.55;101904.13;4818203;29;19939;-77
2021/03/18 08:01:54;;;;;;;;;;;;;;;;;;;;;
2021/03/18 08:05:32;;;;;;;;;;;;;;;13.62;34.11;101909.94;4770634;29;19928;-78
2021/03/18 08:11:47;;;;;;;;;;;;;;;13.57;34.54;101902.03;4861390;29;20648;-78
2021/03/18 08:14:22;;;;;;;;;;;;;;;13.88;34.22;101905.81;4862068;29;20426;-78
2021/03/18 08:16:49;;;;;;;;;;;;;;;13.86;34.26;101904.97;4866914;29;20614;-78
2021/03/18 08:19:18;;;;;;;;;;;;;;;14.09;33.83;101909.75;4858878;29;20400;-78
2021/03/18 08:21:46;;;;;;;;;;;;;;;14.50;33.30;101905.22;4867371;29;19929;-79
2021/03/18 08:24:14;;;;;;;;;;;;;;;14.58;33.13;101905.03;4864735;29;19991;-78
2021/03/18 08:26:45;;;;;;;;;;;;;;;15.25;31.77;101907.66;4863615;29;20022;-77
2021/03/18 08:33:41;;;;;;;;;;;;;;;15.47;31.96;101901.72;4844069;29;19931;-79
2021/03/18 08:37:03;;;;;;;;;;;;;;;14.97;32.83;101894.25;4841896;29;20030;-80
2021/03/18 08:52:10;;;;;;;;;;;;;;;;;;;;;
2021/03/18 08:55:07;;;;;;;;;;;;;;;18.16;28.02;101884.34;4800514;29;20279;-78
2021/03/18 08:59:03;;;;;;;;;;;;;;;;;;;;;
2021/03/18 09:05:20;;;;;;;;;;;;;;;18.78;27.55;101879.06;4733876;30;19934;-79
2021/03/18 09:07:52;;;;;;;;;;;;;;;19.02;27.36;101887.84;4716931;30;20338;-82
2021/03/18 09:10:21;;;;;;;;;;;;;;;19.88;26.25;101885.66;4735909;30;19984;-78
2021/03/18 09:12:49;;;;;;;;;;;;;;;19.64;26.86;101876.94;4728339;30;20140;-79
2021/03/18 09:18:43;;;;;;;;;;;;;;;19.57;26.92;101881.72;4785379;29;19933;-79
2021/03/18 09:22:26;;;;;;;;;;;;;;;;;;;;;
2021/03/18 09:28:51;;;;;;;;;;;;;;;22.48;23.37;101858.28;4784114;29;19959;-84
2021/03/18 09:31:20;;;;;;;;;;;;;;;24.26;21.32;101855.09;4784346;29;19937;-84
2021/03/18 09:33:47;;;;;;;;;;;;;;;25.63;19.54;101851.84;4801819;29;20027;-84
2021/03/18 09:36:23;;;;;;;;;;;;;;;25.55;19.80;101849.69;4811162;29;19932;-85
2021/03/18 09:39:06;;;;;;;;;;;;;;;24.43;21.35;101844.97;4813476;29;19933;-85
2021/03/18 09:41:34;;;;;;;;;;;;;;;23.94;22.21;101852.75;4808103;29;20408;-84
2021/03/18 09:44:03;;;;;;;;;;;;;;;24.16;22.01;101851.28;4812338;29;19997;-84
2021/03/18 09:46:30;;;;;;;;;;;;;;;24.01;22.64;101861.31;4811944;29;20019;-83
2021/03/18 09:48:57;;;;;;;;;;;;;;;23.32;23.45;101855.84;4816559;29;19933;-85
2021/03/18 09:51:24;;;;;;;;;;;;;;;23.25;23.70;101844.56;4817557;29;19933;-85
2021/03/18 09:53:56;;;;;;;;;;;;;;;22.95;24.25;101845.50;4813261;29;19939;-84
2021/03/18 09:56:23;;;;;;;;;;;;;;;22.40;24.97;101855.16;4807094;29;19972;-84
2021/03/18 09:58:50;;;;;;;;;;;;;;;22.29;25.31;101850.38;4809770;29;20048;-83
2021/03/18 10:01:19;;;;;;;;;;;;;;;22.36;25.23;101849.09;4812433;29;19940;-84
2021/03/18 10:03:53;;;;;;;;;;;;;;;22.63;25.00;101853.78;4816805;29;19929;-84
2021/03/18 10:06:24;;;;;;;;;;;;;;;22.30;25.38;101853.94;4817664;29;19929;-86
2021/03/18 10:08:51;;;;;;;;;;;;;;;22.93;24.60;101849.25;4807470;29;19941;-85
2021/03/18 10:11:21;;;;;;;;;;;;;;;23.84;23.26;101854.28;4817000;29;19989;-86
2021/03/18 10:13:48;;;;;;;;;;;;;;;24.71;22.33;101851.19;4805399;29;19943;-86
2021/03/18 10:16:16;;;;;;;;;;;;;;;23.85;23.61;101856.03;4822921;29;19951;-85
2021/03/18 10:18:44;;;;;;;;;;;;;;;22.77;25.23;101857.44;4811034;29;20610;-84
2021/03/18 10:21:11;;;;;;;;;;;;;;;22.05;26.20;101860.78;4816778;29;20023;-87
2021/03/18 10:23:39;;;;;;;;;;;;;;;21.65;27.02;101861.25;4813063;29;19932;-86
2021/03/18 10:26:06;;;;;;;;;;;;;;;21.03;27.91;101861.91;4813648;29;19960;-87
2021/03/18 10:28:32;;;;;;;;;;;;;;;21.28;27.63;101860.59;4814057;29;19944;-87
2021/03/18 10:31:04;;;;;;;;;;;;;;;22.00;26.48;101860.19;4814769;29;20020;-85
2021/03/18 10:33:34;;;;;;;;;;;;;;;24.19;23.30;101851.94;4813262;29;19937;-85
2021/03/18 10:36:03;;;;;;;;;;;;;;;25.65;21.36;101853.47;4809028;29;19985;-85
2021/03/18 10:38:31;;;;;;;;;;;;;;;25.08;22.46;101857.56;4815554;29;20414;-84
2021/03/18 10:40:59;;;;;;;;;;;;;;;24.04;23.58;101863.78;4813138;29;19945;-84
2021/03/18 10:43:27;;;;;;;;;;;;;;;23.84;24.13;101865.94;4814078;29;19968;-86
2021/03/18 10:45:54;;;;;;;;;;;;;;;24.47;23.42;101866.28;4816957;29;19928;-86
2021/03/18 10:48:23;;;;;;;;;;;;;;;24.92;22.71;101852.38;4809384;29;19940;-85
2021/03/18 10:50:50;;;;;;;;;;;;;;;24.70;23.12;101858.44;4804024;29;20019;-85
2021/03/18 10:53:20;;;;;;;;;;;;;;;23.91;24.33;101865.59;4813671;29;20047;-85
2021/03/18 10:56:03;;;;;;;;;;;;;;;23.38;25.06;101864.41;4816214;29;19937;-86
2021/03/18 10:58:30;;;;;;;;;;;;;;;23.18;25.62;101856.75;4814366;29;20080;-84
2021/03/18 11:00:57;;;;;;;;;;;;;;;23.05;25.72;101856.59;4818991;29;19932;-85
2021/03/18 11:03:27;;;;;;;;;;;;;;;23.12;25.66;101855.25;4808720;29;20269;-85
2021/03/18 11:05:54;;;;;;;;;;;;;;;23.18;25.80;101856.75;4818598;29;20029;-86
2021/03/18 11:08:27;;;;;;;;;;;;;;;23.07;25.87;101849.25;4817506;29;19943;-85
2021/03/18 11:10:54;;;;;;;;;;;;;;;24.31;24.12;101846.69;4822000;29;20314;-85
2021/03/18 11:13:22;;;;;;;;;;;;;;;24.49;23.89;101839.13;4815952;29;19943;-86
2021/03/18 11:15:54;;;;;;;;;;;;;;;23.70;25.29;101842.56;4816798;29;20398;-85
2021/03/18 11:18:31;;;;;;;;;;;;;;;23.33;25.57;101839.53;4812252;29;19990;-85
2021/03/18 11:20:59;;;;;;;;;;;;;;;23.36;25.61;101847.47;4810664;29;19933;-85
2021/03/18 11:23:28;;;;;;;;;;;;;;;23.54;25.57;101839.97;4816133;29;20183;-86
2021/03/18 11:25:55;;;;;;;;;;;;;;;23.67;25.46;101845.44;4818041;29;19972;-86
2021/03/18 11:28:22;;;;;;;;;;;;;;;24.93;23.57;101840.59;4814081;29;19940;-86
2021/03/18 11:30:49;;;;;;;;;;;;;;;25.66;22.92;101844.38;4814031;29;20160;-87
2021/03/18 11:33:17;;;;;;;;;;;;;;;26.63;21.49;101836.13;4852056;24;19954;-86
2021/03/18 11:35:45;;;;;;;;;;;;;;;28.66;19.12;101827.66;4853742;29;19951;-85
2021/03/18 11:38:12;;;;;;;;;;;;;;;28.90;18.98;101826.50;4852551;29;19996;-88
2021/03/18 11:40:40;;;;;;;;;;;;;;;28.96;19.14;101820.50;4843867;29;20334;-87
2021/03/18 11:43:07;;;;;;;;;;;;;;;29.78;18.35;101821.31;4840239;29;20322;-86
2021/03/18 11:45:35;;;;;;;;;;;;;;;29.86;18.06;101818.72;4830099;29;19933;-87
2021/03/18 11:48:02;;;;;;;;;;;;;;;29.34;18.70;101816.22;4836942;29;19964;-88
2021/03/18 11:50:29;;;;;;;;;;;;;;;29.64;18.56;101819.84;4836628;29;20347;-88
2021/03/18 11:52:56;;;;;;;;;;;;;;;29.30;19.27;101812.91;4836964;29;19943;-88
2021/03/18 11:55:24;;;;;;;;;;;;;;;31.15;17.33;101801.09;4828310;29;19997;-82
2021/03/18 11:57:56;;;;;;;;;;;;;;;30.91;17.33;101813.41;4833745;29;19939;-90
2021/03/18 12:00:25;;;;;;;;;;;;;;;30.83;17.53;101811.44;4817325;29;19963;-90
2021/03/18 12:02:53;;;;;;;;;;;;;;;29.72;19.08;101814.56;4817916;29;19975;-89
2021/03/18 12:05:37;;;;;;;;;;;;;;;31.86;16.79;101810.44;4836887;29;19937;-90
2021/03/18 12:08:04;;;;;;;;;;;;;;;32.12;16.73;101805.00;4836122;29;20320;-88
2021/03/18 12:10:31;;;;;;;;;;;;;;;33.17;15.96;101804.13;4834602;29;20043;-88
2021/03/18 12:12:59;;;;;;;;;;;;;;;37.58;11.95;101794.84;4834075;29;20423;-87
2021/03/18 12:15:26;;;;;;;;;;;;;;;40.28;9.90;101796.84;4828404;29;19937;-88
2021/03/18 12:17:53;;;;;;;;;;;;;;;41.40;9.39;101786.69;4836822;29;19929;-86
2021/03/18 12:20:21;;;;;;;;;;;;;;;42.45;8.72;101783.22;4832373;29;19932;-87
2021/03/18 12:22:48;;;;;;;;;;;;;;;43.17;8.28;101787.31;4839293;29;19928;-87
2021/03/18 12:25:16;;;;;;;;;;;;;;;43.78;8.17;101790.88;4830490;29;19932;-87
2021/03/18 12:27:46;;;;;;;;;;;;;;;43.71;8.33;101779.00;4814092;29;19959;-88
2021/03/18 12:30:15;;;;;;;;;;;;;;;44.53;7.81;101782.91;4831187;29;20465;-88
2021/03/18 12:33:07;;;;;;;;;;;;;;;44.86;7.44;101783.31;4835622;29;19932;-86
2021/03/18 12:35:35;;;;;;;;;;;;;;;45.01;7.45;101778.06;4821367;29;19941;-88
2021/03/18 12:38:02;;;;;;;;;;;;;;;44.97;7.63;101781.56;4814270;29;19932;-88
2021/03/18 12:40:29;;;;;;;;;;;;;;;45.21;7.30;101780.41;4818620;29;20427;-89
2021/03/18 12:42:56;;;;;;;;;;;;;;;45.74;7.23;101764.31;4806424;29;20011;-88
2021/03/18 12:45:24;;;;;;;;;;;;;;;45.96;7.20;101757.13;4813539;29;19989;-87
2021/03/18 12:47:50;;;;;;;;;;;;;;;46.31;6.98;101750.38;4801793;29;20537;-87
2021/03/18 12:50:19;;;;;;;;;;;;;;;47.15;6.76;101751.97;4810624;29;20015;-89
2021/03/18 12:52:47;;;;;;;;;;;;;;;47.44;6.39;101748.03;4817663;29;19940;-89
2021/03/18 12:55:14;;;;;;;;;;;;;;;45.95;7.54;101747.06;4797624;29;19956;-93
2021/03/18 12:57:50;;;;;;;;;;;;;;;44.32;8.46;101747.31;4801258;29;20290;-82
2021/03/18 13:00:18;;;;;;;;;;;;;;;42.99;9.26;101734.44;4817285;29;21064;-88
2021/03/18 13:02:47;;;;;;;;;;;;;;;40.60;11.09;101737.94;4892627;24;19940;31
2021/03/18 13:05:15;;;;;;;;;;;;;;;40.20;11.09;101730.53;4777080;29;20418;-88
2021/03/18 13:07:48;;;;;;;;;;;;;;;39.43;11.38;101727.34;4783185;29;20073;-85
2021/03/18 13:10:17;;;;;;;;;;;;;;;38.24;12.00;101721.91;4771073;29;20478;-80
2021/03/18 13:12:47;;;;;;;;;;;;;;;38.23;11.88;101714.69;4786441;29;19936;-85
2021/03/18 13:15:15;;;;;;;;;;;;;;;39.99;10.16;101724.19;4797741;29;19994;-85
2021/03/18 13:17:49;;;;;;;;;;;;;;;39.59;10.33;101723.31;4799976;29;19933;-83
2021/03/18 13:20:18;;;;;;;;;;;;;;;37.03;12.27;101711.69;4796192;29;19976;-86
2021/03/18 13:22:48;;;;;;;;;;;;;;;38.22;11.17;101717.66;4794620;29;19956;-84
2021/03/18 13:25:15;;;;;;;;;;;;;;;38.66;10.72;101714.50;4792199;29;20032;-85
2021/03/18 13:27:48;;;;;;;;;;;;;;;36.35;12.38;101712.72;4787448;29;19994;-82
2021/03/18 13:30:17;;;;;;;;;;;;;;;34.17;14.14;101715.44;4796263;29;19936;-83
2021/03/18 13:32:47;;;;;;;;;;;;;;;32.71;15.23;101717.59;4791858;29;20024;-82
2021/03/18 13:35:35;;;;;;;;;;;;;;;31.54;16.21;101721.56;4793766;29;19962;-82
2021/03/18 13:38:02;;;;;;;;;;;;;;;30.62;16.80;101708.75;4789728;29;19956;-81
2021/03/18 13:40:32;;;;;;;;;;;;;;;29.96;17.11;101713.25;4788386;29;20031;-82
2021/03/18 13:42:59;;;;;;;;;;;;;;;29.22;17.87;101716.50;4797814;29;19933;-81
2021/03/18 13:45:26;;;;;;;;;;;;;;;28.78;18.34;101709.50;4795919;29;19940;-82
2021/03/18 13:47:53;;;;;;;;;;;;;;;28.41;18.50;101712.78;4800077;29;20047;-81